Time;durP1;ratioP1;P1;durP2;ratioP2;P2;SDS_P1;SDS_P2;PMS_P1;PMS_P2;Temp;Humidity;BMP_temperature;BMP_pressure;BME280_temperature;BME280_humidity;BME280_pressure;Samples;Min_cycle;Max_cycle;Signal;HPM_P1;HPM_P2
2022/04/29 00:02:05;;;;;;;15.07;8.77;;;6.00;99.90;;;;;;5075205;28;20052;-68
2022/04/29 00:04:31;;;;;;;12.00;8.48;;;6.00;99.90;;;;;;5074735;28;20051;-68
2022/04/29 00:06:56;;;;;;;12.70;8.60;;;6.00;99.90;;;;;;5075282;28;20056;-67
2022/04/29 00:09:23;;;;;;;15.65;8.95;;;6.00;99.90;;;;;;5074941;28;20109;-68
2022/04/29 00:11:50;;;;;;;16.45;8.48;;;6.00;99.90;;;;;;5093286;28;20044;-67
2022/04/29 00:14:16;;;;;;;14.20;9.05;;;6.00;99.90;;;;;;5075138;28;20052;-68
2022/04/29 00:16:42;;;;;;;12.98;8.43;;;6.00;99.90;;;;;;5075378;28;20044;-68
2022/04/29 00:19:08;;;;;;;16.08;9.20;;;5.90;99.90;;;;;;5092804;28;20040;-68
2022/04/29 00:21:33;;;;;;;17.85;8.93;;;6.00;99.90;;;;;;5074481;28;20462;-69
2022/04/29 00:23:59;;;;;;;14.98;8.68;;;5.90;99.90;;;;;;5074008;28;20169;-68
2022/04/29 00:26:25;;;;;;;14.98;8.98;;;6.00;99.90;;;;;;5074687;28;20532;-68
2022/04/29 00:28:50;;;;;;;15.50;9.05;;;5.90;99.90;;;;;;5093958;28;20078;-68
2022/04/29 00:31:16;;;;;;;14.35;9.20;;;5.90;99.90;;;;;;5074430;28;20101;-68
2022/04/29 00:33:42;;;;;;;14.57;9.70;;;5.90;99.90;;;;;;5074606;28;20032;-67
2022/04/29 00:36:07;;;;;;;16.83;9.48;;;5.90;99.90;;;;;;5092991;28;20044;-68
2022/04/29 00:38:33;;;;;;;17.13;9.40;;;5.90;99.90;;;;;;5074047;28;20105;-68
2022/04/29 00:40:59;;;;;;;17.95;10.02;;;5.90;99.90;;;;;;5073431;28;20096;-68
2022/04/29 00:43:25;;;;;;;11.20;8.75;;;5.90;99.90;;;;;;5073759;28;20055;-68
2022/04/29 00:45:51;;;;;;;13.50;9.27;;;5.90;99.90;;;;;;5053932;28;20614;-68
2022/04/29 00:48:17;;;;;;;17.35;10.02;;;5.90;99.90;;;;;;5073716;28;20040;-68
2022/04/29 00:50:43;;;;;;;18.90;9.77;;;5.90;99.90;;;;;;5041300;28;20159;-68
2022/04/29 00:53:12;;;;;;;15.95;9.90;;;5.80;99.90;;;;;;5092361;28;20036;-68
2022/04/29 00:55:39;;;;;;;14.48;8.98;;;5.80;99.90;;;;;;5091436;28;20047;-67
2022/04/29 00:58:16;;;;;;;16.08;9.90;;;5.80;99.90;;;;;;5092660;28;20146;-68
2022/04/29 01:00:43;;;;;;;22.35;9.82;;;5.80;99.90;;;;;;5073024;28;20551;-68
2022/04/29 01:03:12;;;;;;;19.83;9.40;;;5.70;99.90;;;;;;5073704;28;20157;-68
2022/04/29 01:05:39;;;;;;;14.23;9.05;;;5.70;99.90;;;;;;5074498;28;20440;-67
2022/04/29 01:08:05;;;;;;;13.90;9.10;;;5.70;99.90;;;;;;5092444;28;20539;-67
2022/04/29 01:10:31;;;;;;;14.68;8.88;;;5.60;99.90;;;;;;5057495;28;20456;-68
2022/04/29 01:13:00;;;;;;;16.02;9.65;;;5.60;99.90;;;;;;5092491;28;20040;-67
2022/04/29 01:15:26;;;;;;;15.13;9.68;;;5.60;99.90;;;;;;5074065;28;20050;-67
2022/04/29 01:18:02;;;;;;;14.82;9.77;;;5.60;99.90;;;;;;5073881;28;20192;-68
2022/04/29 01:20:30;;;;;;;18.80;10.57;;;5.60;99.90;;;;;;5072766;28;20913;-68
2022/04/29 01:22:56;;;;;;;16.35;9.88;;;5.50;99.90;;;;;;5092103;28;20047;-68
2022/04/29 01:25:22;;;;;;;15.93;11.13;;;5.50;99.90;;;;;;5092481;28;20039;-68
2022/04/29 01:27:49;;;;;;;13.43;9.93;;;5.50;99.90;;;;;;5092423;28;20073;-68
2022/04/29 01:30:18;;;;;;;15.60;9.98;;;5.50;99.90;;;;;;5091723;28;20062;-68
2022/04/29 01:32:44;;;;;;;18.15;10.02;;;5.40;99.90;;;;;;5056118;28;20051;-68
2022/04/29 01:35:12;;;;;;;16.48;10.20;;;5.40;99.90;;;;;;5091707;28;20077;-68
2022/04/29 01:37:39;;;;;;;16.40;10.55;;;5.50;99.90;;;;;;5073955;28;20656;-68
2022/04/29 01:40:06;;;;;;;15.48;10.15;;;5.50;99.90;;;;;;5091828;28;20492;-68
2022/04/29 01:42:33;;;;;;;16.08;10.75;;;5.50;99.90;;;;;;5091220;28;20079;-68
2022/04/29 01:44:59;;;;;;;17.58;10.70;;;5.50;99.90;;;;;;5073501;28;20040;-68
2022/04/29 01:47:24;;;;;;;17.42;10.23;;;5.50;99.90;;;;;;5073366;28;20532;-69
2022/04/29 01:49:50;;;;;;;17.63;10.68;;;5.50;99.90;;;;;;5071946;28;20056;-68
2022/04/29 01:52:16;;;;;;;17.73;10.13;;;5.50;99.90;;;;;;5053920;28;20057;-68
2022/04/29 01:54:41;;;;;;;15.50;10.23;;;5.40;99.90;;;;;;5089022;28;20101;-68
2022/04/29 01:57:08;;;;;;;17.23;10.18;;;5.40;99.90;;;;;;5073904;28;20180;-69
2022/04/29 01:59:35;;;;;;;11.70;9.05;;;5.40;99.90;;;;;;5072998;28;20498;-68
2022/04/29 02:02:02;;;;;;;15.13;9.38;;;5.30;99.90;;;;;;5073780;28;20468;-68
2022/04/29 02:04:29;;;;;;;16.40;9.88;;;5.30;99.90;;;;;;5072271;28;20036;-68
2022/04/29 02:06:55;;;;;;;14.85;10.20;;;5.30;99.90;;;;;;5073016;28;20109;-69
2022/04/29 02:09:22;;;;;;;14.48;9.20;;;5.30;99.90;;;;;;5091046;28;20435;-68
2022/04/29 02:12:05;;;;;;;15.88;9.60;;;5.20;99.90;;;;;;5073216;28;20058;-68
2022/04/29 02:14:32;;;;;;;16.80;10.13;;;5.20;99.90;;;;;;5069426;28;20044;-67
2022/04/29 02:16:58;;;;;;;18.67;9.35;;;5.20;99.90;;;;;;5091484;28;20040;-68
2022/04/29 02:19:25;;;;;;;13.65;9.75;;;5.20;99.90;;;;;;5055163;28;20089;-68
2022/04/29 02:21:52;;;;;;;16.55;10.90;;;5.30;99.90;;;;;;5071730;28;20043;-68
2022/04/29 02:24:17;;;;;;;16.15;10.63;;;5.20;99.90;;;;;;5072575;28;20048;-69
2022/04/29 02:26:43;;;;;;;14.02;9.98;;;5.20;99.90;;;;;;5091057;28;20032;-69
2022/04/29 02:29:09;;;;;;;16.25;10.57;;;5.10;99.90;;;;;;5091289;28;20054;-69
2022/04/29 02:31:35;;;;;;;14.95;9.52;;;5.20;99.90;;;;;;5072693;28;20036;-68
2022/04/29 02:34:00;;;;;;;18.40;9.63;;;5.20;99.90;;;;;;5090605;28;20500;-68
2022/04/29 02:36:26;;;;;;;16.52;10.10;;;5.20;99.90;;;;;;5072483;28;20072;-68
2022/04/29 02:38:52;;;;;;;16.30;10.90;;;5.20;99.90;;;;;;5072275;28;20429;-69
2022/04/29 02:41:17;;;;;;;15.32;10.60;;;5.20;99.90;;;;;;5072464;28;20460;-69
2022/04/29 02:43:44;;;;;;;15.80;9.80;;;5.20;99.90;;;;;;5073042;28;20040;-69
2022/04/29 02:46:10;;;;;;;17.25;9.95;;;5.20;99.90;;;;;;5071725;28;20109;-69
2022/04/29 02:48:35;;;;;;;19.20;10.75;;;5.20;99.90;;;;;;5071983;28;20040;-67
2022/04/29 02:51:04;;;;;;;17.98;10.98;;;5.20;99.90;;;;;;5057268;28;20055;-67
2022/04/29 02:53:33;;;;;;;14.07;10.10;;;5.20;99.90;;;;;;5069634;28;20389;-68
2022/04/29 02:55:58;;;;;;;15.77;10.05;;;5.20;99.90;;;;;;5071760;28;20044;-69
2022/04/29 02:58:24;;;;;;;13.27;9.48;;;5.20;99.90;;;;;;5090622;28;20052;-69
2022/04/29 03:00:50;;;;;;;18.27;10.15;;;5.20;99.90;;;;;;5090832;28;20059;-69
2022/04/29 03:03:16;;;;;;;16.88;11.20;;;5.20;99.90;;;;;;5071596;28;20035;-69
2022/04/29 03:05:41;;;;;;;16.65;9.95;;;5.30;99.90;;;;;;5091004;28;20417;-69
2022/04/29 03:08:08;;;;;;;16.33;11.02;;;5.30;99.90;;;;;;5072001;28;20660;-68
2022/04/29 03:10:34;;;;;;;17.55;11.23;;;5.30;99.90;;;;;;5070824;28;20216;-68
2022/04/29 03:13:00;;;;;;;13.65;10.05;;;5.30;99.90;;;;;;5071938;28;20045;-68
2022/04/29 03:15:26;;;;;;;16.08;10.15;;;5.30;99.90;;;;;;5090455;28;20039;-67
2022/04/29 03:20:39;;;;;;;20.65;11.10;;;5.20;99.90;;;;;;5075229;28;20051;-67
2022/04/29 03:23:06;;;;;;;15.30;10.88;;;5.20;99.90;;;;;;5075801;28;20040;-67
2022/04/29 03:25:32;;;;;;;15.85;10.48;;;5.20;99.90;;;;;;5075314;28;20048;-68
2022/04/29 03:27:58;;;;;;;13.70;10.38;;;5.20;99.90;;;;;;5094004;28;20379;-68
2022/04/29 03:30:24;;;;;;;17.02;10.95;;;5.20;99.90;;;;;;5076277;28;20050;-68
2022/04/29 03:32:59;;;;;;;17.52;11.50;;;5.20;99.90;;;;;;5093639;28;20115;-68
2022/04/29 03:35:26;;;;;;;21.63;11.00;;;5.10;99.90;;;;;;5076208;28;20172;-68
2022/04/29 03:37:53;;;;;;;18.95;10.80;;;5.10;99.90;;;;;;5075713;28;20109;-68
2022/04/29 03:40:23;;;;;;;15.30;11.05;;;5.10;99.90;;;;;;5076351;28;20391;-68
2022/04/29 03:42:49;;;;;;;15.27;11.32;;;5.00;99.90;;;;;;5058949;28;20139;-68
2022/04/29 03:45:15;;;;;;;17.33;10.55;;;5.00;99.90;;;;;;5071893;28;20504;-68
2022/04/29 03:47:42;;;;;;;18.67;11.02;;;5.00;99.90;;;;;;5056242;28;20044;-68
2022/04/29 03:50:08;;;;;;;18.00;11.43;;;5.00;99.90;;;;;;5075569;28;20060;-69
2022/04/29 03:52:34;;;;;;;18.10;10.98;;;4.90;99.90;;;;;;5073140;28;20044;-68
2022/04/29 03:55:00;;;;;;;15.40;11.90;;;4.90;99.90;;;;;;5075835;28;20313;-67
2022/04/29 03:57:26;;;;;;;15.13;11.00;;;4.90;99.90;;;;;;5091121;28;20047;-67
2022/04/29 03:59:52;;;;;;;15.55;10.82;;;4.90;99.90;;;;;;5093393;28;20040;-67
2022/04/29 04:02:17;;;;;;;18.55;11.10;;;4.90;99.90;;;;;;5093979;28;20032;-68
2022/04/29 04:04:44;;;;;;;17.33;11.65;;;4.90;99.90;;;;;;5072228;28;20061;-69
2022/04/29 04:07:10;;;;;;;15.25;11.43;;;4.90;99.90;;;;;;5093682;28;20040;-68
2022/04/29 04:09:36;;;;;;;17.77;11.63;;;4.90;99.90;;;;;;5075309;28;20051;-68
2022/04/29 04:12:05;;;;;;;17.42;12.52;;;4.90;99.90;;;;;;5073504;28;20032;-68
2022/04/29 04:14:30;;;;;;;15.50;10.98;;;4.80;99.90;;;;;;5074451;28;20100;-68
2022/04/29 04:16:56;;;;;;;16.08;10.73;;;4.90;99.90;;;;;;5093973;28;20035;-68
2022/04/29 04:19:22;;;;;;;16.90;10.90;;;4.90;99.90;;;;;;5091792;28;20111;-68
2022/04/29 04:21:48;;;;;;;21.10;12.00;;;4.80;99.90;;;;;;5075360;28;20552;-69
2022/04/29 04:24:14;;;;;;;23.02;11.38;;;4.90;99.90;;;;;;5074965;28;20384;-67
2022/04/29 04:26:40;;;;;;;19.65;11.55;;;4.90;99.90;;;;;;5094814;28;20114;-68
2022/04/29 04:29:06;;;;;;;17.02;11.25;;;4.90;99.90;;;;;;5074346;28;20151;-67
2022/04/29 04:31:32;;;;;;;15.57;11.02;;;4.90;99.90;;;;;;5074816;28;20407;-68
2022/04/29 04:33:57;;;;;;;16.23;11.20;;;5.00;99.90;;;;;;5074179;28;20348;-68
2022/04/29 04:36:23;;;;;;;16.10;11.07;;;5.00;99.90;;;;;;5058566;28;20047;-68
2022/04/29 04:38:49;;;;;;;16.35;10.88;;;5.10;99.90;;;;;;5092314;28;20143;-68
2022/04/29 04:41:18;;;;;;;17.83;12.07;;;5.10;99.90;;;;;;5093285;28;20097;-68
2022/04/29 04:43:44;;;;;;;16.27;11.55;;;5.20;99.90;;;;;;5092813;28;20062;-68
2022/04/29 04:46:12;;;;;;;20.02;10.93;;;5.20;99.90;;;;;;5074047;28;20048;-68
2022/04/29 04:48:38;;;;;;;17.00;10.90;;;5.30;99.90;;;;;;5057104;28;20170;-68
2022/04/29 04:51:04;;;;;;;18.92;10.95;;;5.30;99.90;;;;;;5058112;28;20131;-68
2022/04/29 04:53:30;;;;;;;23.58;11.27;;;5.40;99.90;;;;;;5074199;28;20571;-68
2022/04/29 04:55:56;;;;;;;20.92;11.13;;;5.50;99.90;;;;;;5074442;28;20047;-68
2022/04/29 04:58:22;;;;;;;17.08;11.57;;;5.60;99.90;;;;;;5092860;28;20040;-69
2022/04/29 05:00:47;;;;;;;15.90;10.65;;;5.60;99.90;;;;;;5092643;28;20051;-68
2022/04/29 05:03:13;;;;;;;21.75;10.68;;;5.70;99.90;;;;;;5091986;28;20040;-68
2022/04/29 05:05:39;;;;;;;15.55;10.27;;;5.80;99.90;;;;;;5090881;28;20132;-68
2022/04/29 05:08:05;;;;;;;20.95;10.60;;;5.80;99.90;;;;;;5073939;28;20035;-68
2022/04/29 05:10:31;;;;;;;14.18;9.52;;;5.90;99.90;;;;;;5074467;28;20527;-68
2022/04/29 05:12:57;;;;;;;15.18;10.80;;;6.00;99.90;;;;;;5092623;28;20116;-68
2022/04/29 05:15:22;;;;;;;17.95;10.82;;;6.10;99.90;;;;;;5074258;28;20043;-68
2022/04/29 05:17:48;;;;;;;15.43;9.45;;;6.20;99.90;;;;;;5073649;28;20127;-67
2022/04/29 05:20:16;;;;;;;13.32;9.50;;;6.20;99.90;;;;;;5071676;28;20535;-68
2022/04/29 05:22:43;;;;;;;12.05;10.05;;;6.30;99.90;;;;;;5073433;28;20040;-67
2022/04/29 05:25:09;;;;;;;15.45;10.07;;;6.40;99.90;;;;;;5092116;28;20040;-67
2022/04/29 05:27:36;;;;;;;17.63;9.85;;;6.50;99.90;;;;;;5073341;28;20066;-68
2022/04/29 05:30:02;;;;;;;16.58;9.88;;;6.60;99.90;;;;;;5074319;28;20529;-68
2022/04/29 05:32:29;;;;;;;17.25;9.70;;;6.60;99.90;;;;;;5073762;28;20028;-68
2022/04/29 05:34:55;;;;;;;15.60;10.13;;;6.70;99.90;;;;;;5091149;28;20055;-67
2022/04/29 05:37:21;;;;;;;16.45;10.30;;;6.80;99.90;;;;;;5091887;28;20051;-68
2022/04/29 05:42:32;;;;;;;15.85;10.02;;;7.10;99.90;;;;;;5072977;28;20098;-67
2022/04/29 05:45:00;;;;;;;15.93;9.52;;;7.20;99.90;;;;;;5092100;28;20067;-67
2022/04/29 05:47:26;;;;;;;17.52;9.50;;;7.20;99.90;;;;;;5091745;28;20125;-68
2022/04/29 05:49:51;;;;;;;13.60;8.38;;;7.20;99.90;;;;;;5091165;28;20495;-68
2022/04/29 05:52:17;;;;;;;15.68;7.78;;;7.30;99.90;;;;;;5091301;28;20123;-68
2022/04/29 05:54:43;;;;;;;14.23;7.45;;;7.30;99.90;;;;;;5092048;28;20093;-68
2022/04/29 05:57:09;;;;;;;14.35;8.23;;;7.40;99.90;;;;;;5071623;28;20032;-68
2022/04/29 05:59:34;;;;;;;15.50;7.15;;;7.40;99.90;;;;;;5091540;28;20051;-68
2022/04/29 06:02:00;;;;;;;14.45;7.85;;;7.40;99.90;;;;;;5073385;28;20032;-68
2022/04/29 06:04:26;;;;;;;14.40;8.30;;;7.40;99.90;;;;;;5071750;28;20028;-68
2022/04/29 06:06:51;;;;;;;13.98;7.47;;;7.50;99.90;;;;;;5091752;28;20097;-68
2022/04/29 06:09:17;;;;;;;11.57;7.75;;;7.50;99.90;;;;;;5072350;28;20036;-69
2022/04/29 06:11:43;;;;;;;14.40;8.07;;;7.40;99.90;;;;;;5091797;28;20032;-68
2022/04/29 06:14:09;;;;;;;13.25;7.45;;;7.60;99.90;;;;;;5072044;28;20488;-68
2022/04/29 06:16:34;;;;;;;13.27;7.55;;;7.60;99.90;;;;;;5071384;28;20105;-68
2022/04/29 06:19:00;;;;;;;11.18;7.88;;;7.70;99.90;;;;;;5072338;28;20039;-68
2022/04/29 06:21:26;;;;;;;13.35;7.20;;;7.70;99.90;;;;;;5091637;28;20673;-68
2022/04/29 06:23:52;;;;;;;11.52;7.53;;;7.70;99.90;;;;;;5090481;28;20044;-68
2022/04/29 06:26:18;;;;;;;9.95;6.95;;;7.70;99.90;;;;;;5072757;28;20238;-68
2022/04/29 06:28:43;;;;;;;11.48;7.28;;;7.80;99.90;;;;;;5072403;28;20081;-68
2022/04/29 06:31:10;;;;;;;10.80;7.13;;;7.80;99.90;;;;;;5060611;28;20051;-68
2022/04/29 06:33:37;;;;;;;15.27;7.38;;;7.90;99.90;;;;;;5090614;28;20028;-68
2022/04/29 06:36:03;;;;;;;12.23;8.25;;;8.00;99.90;;;;;;5091208;28;20051;-68
2022/04/29 06:38:29;;;;;;;11.10;6.57;;;8.00;99.90;;;;;;5072408;28;20111;-69
2022/04/29 06:40:56;;;;;;;10.27;5.88;;;8.10;99.90;;;;;;5054985;28;20197;-68
2022/04/29 06:43:22;;;;;;;11.35;6.93;;;8.10;99.90;;;;;;5090847;28;20111;-68
2022/04/29 06:45:48;;;;;;;12.13;5.93;;;8.20;99.90;;;;;;5088921;28;20044;-68
2022/04/29 06:48:14;;;;;;;12.77;5.80;;;8.20;99.90;;;;;;5071329;28;20074;-68
2022/04/29 06:50:41;;;;;;;8.38;4.88;;;8.40;99.90;;;;;;5090513;28;20059;-67
2022/04/29 06:53:07;;;;;;;7.88;4.70;;;8.50;99.90;;;;;;5087474;28;20393;-68
2022/04/29 06:55:37;;;;;;;11.18;5.20;;;8.50;99.90;;;;;;5090461;28;20134;-69
2022/04/29 06:58:03;;;;;;;10.25;4.88;;;8.50;99.90;;;;;;5071320;28;20386;-69
2022/04/29 07:00:29;;;;;;;9.85;4.55;;;8.50;99.90;;;;;;5090474;28;20043;-68
2022/04/29 07:02:56;;;;;;;9.60;5.13;;;8.60;99.90;;;;;;5055229;28;20048;-68
2022/04/29 07:05:23;;;;;;;11.05;3.95;;;8.60;99.90;;;;;;5090633;28;20036;-68
2022/04/29 07:07:52;;;;;;;7.82;4.10;;;8.70;99.90;;;;;;5090256;28;20036;-68
2022/04/29 07:10:18;;;;;;;6.22;3.92;;;8.80;99.90;;;;;;5072166;28;20040;-68
2022/04/29 07:12:44;;;;;;;7.10;4.40;;;8.70;99.90;;;;;;5072209;28;20036;-68
2022/04/29 07:15:12;;;;;;;8.48;4.90;;;8.70;99.90;;;;;;5072233;28;20115;-68
2022/04/29 07:17:43;;;;;;;5.80;3.85;;;8.70;99.90;;;;;;5071685;28;20086;-68
2022/04/29 07:20:11;;;;;;;9.60;4.03;;;8.80;99.90;;;;;;5071272;28;20072;-68
2022/04/29 07:22:40;;;;;;;7.70;4.32;;;8.80;99.90;;;;;;5072026;28;20502;-68
2022/04/29 07:25:07;;;;;;;10.55;4.10;;;9.00;99.90;;;;;;5071806;28;20687;-68
2022/04/29 07:27:33;;;;;;;9.50;4.20;;;9.00;99.90;;;;;;5071949;28;20112;-68
2022/04/29 07:30:04;;;;;;;8.48;4.70;;;9.10;99.90;;;;;;5071933;28;20040;-68
2022/04/29 07:32:30;;;;;;;7.40;4.20;;;9.10;99.90;;;;;;5090192;28;20168;-68
2022/04/29 07:43:14;;;;;;;9.77;4.18;;;9.60;99.90;;;;;;5088863;28;20036;-69
2022/04/29 07:45:42;;;;;;;11.52;4.38;;;9.70;99.90;;;;;;5054302;28;20352;-69
2022/04/29 07:48:08;;;;;;;8.43;4.35;;;9.80;99.90;;;;;;5087109;28;20115;-69
2022/04/29 07:50:35;;;;;;;7.43;4.30;;;10.00;99.90;;;;;;5089897;28;20048;-68
2022/04/29 07:53:02;;;;;;;7.38;4.05;;;10.00;99.90;;;;;;5090126;28;20048;-68
2022/04/29 07:55:29;;;;;;;6.88;3.00;;;10.20;99.90;;;;;;5089980;28;20056;-68
2022/04/29 07:57:56;;;;;;;8.00;3.17;;;10.10;99.10;;;;;;5053328;28;20052;-68
2022/04/29 08:00:22;;;;;;;5.97;2.83;;;10.20;99.40;;;;;;5090360;28;20036;-68
2022/04/29 08:02:48;;;;;;;5.07;2.40;;;10.40;98.60;;;;;;5089058;28;20044;-68
2022/04/29 08:05:14;;;;;;;7.03;2.53;;;10.70;98.30;;;;;;5091975;28;20454;-68
2022/04/29 08:07:40;;;;;;;6.18;2.30;;;10.90;98.10;;;;;;5075334;28;20036;-68
2022/04/29 08:10:06;;;;;;;5.70;1.98;;;11.00;97.90;;;;;;5094268;28;20047;-68
2022/04/29 08:12:32;;;;;;;7.63;1.80;;;10.80;94.90;;;;;;5075767;28;20083;-69
2022/04/29 08:14:59;;;;;;;3.60;1.98;;;10.80;95.40;;;;;;5058599;28;20086;-68
2022/04/29 08:17:25;;;;;;;4.13;1.90;;;10.80;95.50;;;;;;5075089;28;20036;-69
2022/04/29 08:19:52;;;;;;;4.88;1.90;;;10.90;95.20;;;;;;5074056;28;20047;-68
2022/04/29 08:22:18;;;;;;;6.00;2.45;;;11.20;95.20;;;;;;5075086;28;20065;-67
2022/04/29 08:24:45;;;;;;;6.75;1.63;;;11.70;95.00;;;;;;5075092;28;20040;-68
2022/04/29 08:27:11;;;;;;;4.28;1.58;;;12.00;93.70;;;;;;5093275;28;20123;-68
2022/04/29 08:29:37;;;;;;;7.10;1.55;;;12.20;92.20;;;;;;5075079;28;20111;-68
2022/04/29 08:32:04;;;;;;;4.25;1.63;;;12.10;90.40;;;;;;5075323;28;20510;-68
2022/04/29 08:34:31;;;;;;;3.90;1.45;;;12.30;90.80;;;;;;5073847;28;20043;-68
2022/04/29 08:36:56;;;;;;;5.95;1.60;;;12.70;89.50;;;;;;5093607;28;20039;-68
2022/04/29 08:39:22;;;;;;;4.93;1.73;;;13.00;87.60;;;;;;5093220;28;20039;-68
2022/04/29 08:41:50;;;;;;;5.18;1.50;;;12.80;86.00;;;;;;5093104;28;20098;-69
2022/04/29 08:44:19;;;;;;;4.57;1.60;;;12.60;84.60;;;;;;5073949;28;20040;-69
2022/04/29 08:46:45;;;;;;;5.05;1.88;;;12.30;85.30;;;;;;5091423;28;20040;-69
2022/04/29 08:49:11;;;;;;;4.40;1.25;;;12.10;86.00;;;;;;5073960;28;20055;-68
2022/04/29 08:51:40;;;;;;;5.20;1.40;;;12.00;85.20;;;;;;5093392;28;20040;-68
2022/04/29 08:54:06;;;;;;;5.40;1.83;;;11.80;85.50;;;;;;5074168;28;20040;-68
2022/04/29 08:59:19;;;;;;;6.15;1.30;;;11.60;84.40;;;;;;5091651;28;20051;-68
2022/04/29 09:01:45;;;;;;;6.47;1.83;;;11.50;86.40;;;;;;5075147;28;20428;-68
2022/04/29 09:04:11;;;;;;;4.95;1.63;;;11.70;86.50;;;;;;5073657;28;20701;-68
2022/04/29 09:06:50;;;;;;;5.72;2.03;;;11.60;86.50;;;;;;5093508;28;20036;-68
2022/04/29 09:09:20;;;;;;;4.78;2.03;;;11.40;87.00;;;;;;5074752;28;20124;-70
2022/04/29 09:11:47;;;;;;;5.25;2.03;;;11.50;88.00;;;;;;5074405;28;20364;-68
2022/04/29 09:14:23;;;;;;;6.07;1.90;;;11.60;87.40;;;;;;5093016;28;20175;-69
2022/04/29 09:16:49;;;;;;;6.30;1.77;;;11.60;87.20;;;;;;5092174;28;20496;-68
2022/04/29 09:19:33;;;;;;;9.23;2.10;;;11.50;86.50;;;;;;5074003;28;20040;-69
2022/04/29 09:22:17;;;;;;;5.70;1.92;;;11.70;88.10;;;;;;5074946;28;20044;-69
2022/04/29 09:24:57;;;;;;;4.53;1.90;;;11.90;86.20;;;;;;5091576;28;20051;-69
2022/04/29 09:27:23;;;;;;;5.50;1.65;;;12.10;86.60;;;;;;5073706;28;20458;-69
2022/04/29 09:29:49;;;;;;;4.35;1.52;;;12.20;85.20;;;;;;5092186;28;20111;-69
2022/04/29 09:32:14;;;;;;;4.90;1.63;;;12.20;85.00;;;;;;5074483;28;20075;-69
2022/04/29 09:34:44;;;;;;;3.20;1.35;;;12.20;84.30;;;;;;5073167;28;20044;-68
2022/04/29 09:37:20;;;;;;;5.88;1.70;;;12.20;83.80;;;;;;5074482;28;20089;-68
2022/04/29 09:40:00;;;;;;;3.55;1.40;;;12.20;84.40;;;;;;5091473;28;20043;-68
2022/04/29 09:42:59;;;;;;;3.35;1.23;;;12.40;83.00;;;;;;5074352;28;20384;-68
2022/04/29 09:45:26;;;;;;;4.40;1.52;;;12.30;81.80;;;;;;5059041;28;20052;-68
2022/04/29 09:47:58;;;;;;;5.28;1.52;;;12.20;82.60;;;;;;5073281;28;20054;-68
2022/04/29 09:50:50;;;;;;;3.72;1.40;;;12.20;83.40;;;;;;5091243;28;20060;-68
2022/04/29 09:53:16;;;;;;;6.47;1.27;;;12.30;83.20;;;;;;5070879;28;20044;-68
2022/04/29 09:55:42;;;;;;;3.00;1.05;;;12.20;83.40;;;;;;5073467;28;20489;-68
2022/04/29 09:58:09;;;;;;;5.78;1.35;;;12.20;82.90;;;;;;5073613;28;20044;-69
2022/04/29 10:00:35;;;;;;;4.90;1.30;;;12.20;81.50;;;;;;5091435;28;20040;-69
2022/04/29 10:03:03;;;;;;;7.47;1.52;;;11.80;83.20;;;;;;5075637;28;20036;-69
2022/04/29 10:05:31;;;;;;;6.03;1.33;;;11.90;83.60;;;;;;5056068;28;20504;-69
2022/04/29 10:07:58;;;;;;;8.25;1.60;;;11.70;83.30;;;;;;5091483;28;20123;-69
2022/04/29 10:10:27;;;;;;;5.32;1.70;;;11.70;83.90;;;;;;5091052;28;20024;-69
2022/04/29 10:12:53;;;;;;;4.70;2.03;;;11.50;83.70;;;;;;5091058;28;20714;-69
2022/04/29 10:15:20;;;;;;;4.30;1.70;;;11.40;84.50;;;;;;5091135;28;20059;-69
2022/04/29 10:23:20;;;;;;;4.88;1.02;;;11.60;85.00;;;;;;5091343;28;20486;-68
2022/04/29 10:25:47;;;;;;;7.80;1.70;;;11.60;85.10;;;;;;5091164;28;20043;-68
2022/04/29 10:28:23;;;;;;;8.20;1.67;;;11.70;84.70;;;;;;5072437;28;20047;-68
2022/04/29 10:31:05;;;;;;;4.18;1.83;;;11.60;84.70;;;;;;5071611;28;20032;-68
2022/04/29 10:33:31;;;;;;;4.78;1.60;;;11.50;83.80;;;;;;5071963;28;20031;-69
2022/04/29 10:36:08;;;;;;;3.58;1.30;;;11.40;85.40;;;;;;5072783;28;20161;-69
2022/04/29 10:38:36;;;;;;;6.47;1.50;;;11.40;85.90;;;;;;5055470;28;20047;-69
2022/04/29 10:41:18;;;;;;;5.22;1.48;;;11.40;85.80;;;;;;5071856;28;20048;-68
2022/04/29 10:43:50;;;;;;;4.53;1.52;;;11.40;85.80;;;;;;5091138;28;20548;-68
2022/04/29 10:46:21;;;;;;;5.03;1.30;;;11.30;86.50;;;;;;5071740;28;20054;-68
2022/04/29 10:48:52;;;;;;;5.70;1.48;;;11.30;87.20;;;;;;5071990;28;20043;-69
2022/04/29 10:51:21;;;;;;;4.70;1.60;;;11.30;87.70;;;;;;5071695;28;20074;-69
2022/04/29 10:53:49;;;;;;;5.00;1.27;;;11.40;88.00;;;;;;5064583;28;20464;-69
2022/04/29 10:56:30;;;;;;;4.55;1.20;;;11.40;88.50;;;;;;5072375;28;20079;-69
2022/04/29 10:59:11;;;;;;;4.53;1.38;;;11.40;87.50;;;;;;5055563;28;20079;-68
2022/04/29 11:01:47;;;;;;;2.83;1.40;;;11.50;88.10;;;;;;5090264;28;20446;-69
2022/04/29 11:04:16;;;;;;;6.63;1.60;;;11.40;88.50;;;;;;5070227;28;20140;-67
2022/04/29 11:06:45;;;;;;;4.28;1.40;;;11.40;87.40;;;;;;5090341;28;20040;-68
2022/04/29 11:09:46;;;;;;;7.00;1.88;;;11.30;88.10;;;;;;5071645;28;20131;-68
2022/04/29 11:12:30;;;;;;;7.57;1.50;;;11.40;89.10;;;;;;5015963;28;20402;-69
2022/04/29 11:15:13;;;;;;;4.13;1.60;;;11.50;86.90;;;;;;5064733;28;20426;-69
2022/04/29 11:17:39;;;;;;;5.78;1.73;;;11.50;86.50;;;;;;5089552;28;20315;-70
2022/04/29 11:20:21;;;;;;;6.65;1.48;;;11.50;86.50;;;;;;5071713;28;20094;-69
2022/04/29 11:25:57;;;;;;;5.72;2.33;;;11.70;85.80;;;;;;5090519;28;20275;-69
2022/04/29 11:28:25;;;;;;;5.45;1.80;;;11.70;85.70;;;;;;5072461;28;20036;-69
2022/04/29 11:31:02;;;;;;;5.13;1.80;;;11.80;85.10;;;;;;5072173;28;20417;-69
2022/04/29 11:33:27;;;;;;;3.38;1.73;;;11.80;85.60;;;;;;5088734;28;20396;-69
2022/04/29 11:36:05;;;;;;;5.70;1.80;;;11.90;84.90;;;;;;5090191;28;20040;-69
2022/04/29 11:38:42;;;;;;;8.68;1.92;;;11.90;83.60;;;;;;5090233;28;20036;-69
2022/04/29 11:41:15;;;;;;;3.85;1.77;;;12.00;83.50;;;;;;5075346;28;20412;-69
2022/04/29 11:43:40;;;;;;;6.13;1.67;;;11.90;83.20;;;;;;5092643;28;20468;-69
2022/04/29 11:46:08;;;;;;;5.50;2.33;;;11.90;83.10;;;;;;5075707;28;20559;-69
2022/04/29 11:48:34;;;;;;;6.72;2.28;;;12.10;84.10;;;;;;5059085;28;20036;-69
2022/04/29 11:51:01;;;;;;;4.10;2.35;;;12.20;82.00;;;;;;5092069;28;20566;-69
2022/04/29 11:53:27;;;;;;;3.67;1.85;;;12.10;82.40;;;;;;5092559;28;20115;-69
2022/04/29 11:55:53;;;;;;;2.88;1.80;;;12.20;82.90;;;;;;5075592;28;20452;-69
2022/04/29 11:58:19;;;;;;;4.65;2.67;;;12.20;82.40;;;;;;5075628;28;20044;-69
2022/04/29 12:00:50;;;;;;;6.30;2.42;;;12.10;81.20;;;;;;5075398;28;20109;-69
2022/04/29 12:03:21;;;;;;;6.03;2.17;;;12.10;82.50;;;;;;5072645;28;20040;-69
2022/04/29 12:05:47;;;;;;;4.72;2.30;;;12.10;83.60;;;;;;5058317;28;20082;-69
2022/04/29 12:08:12;;;;;;;7.20;2.38;;;12.20;83.20;;;;;;5075582;28;20581;-69
2022/04/29 12:10:41;;;;;;;5.20;2.47;;;12.20;80.80;;;;;;5075270;28;20417;-69
2022/04/29 12:13:06;;;;;;;6.07;3.30;;;12.10;81.10;;;;;;5076140;28;20032;-69
2022/04/29 12:15:36;;;;;;;3.88;2.30;;;12.00;81.50;;;;;;5058040;28;20075;-69
2022/04/29 12:18:07;;;;;;;5.90;2.22;;;12.10;81.60;;;;;;5074888;28;20044;-69
2022/04/29 12:20:33;;;;;;;5.35;2.25;;;12.10;81.80;;;;;;5075255;28;20043;-69
2022/04/29 12:23:22;;;;;;;7.53;2.17;;;12.20;81.80;;;;;;5093865;28;20040;-69
2022/04/29 12:25:48;;;;;;;5.70;2.55;;;12.30;80.50;;;;;;5093100;28;20123;-69
2022/04/29 12:28:19;;;;;;;6.35;2.50;;;12.20;80.10;;;;;;5075222;28;20128;-69
2022/04/29 12:36:48;;;;;;;3.60;2.80;;;12.10;80.60;;;;;;5074269;28;20043;-69
2022/04/29 12:39:15;;;;;;;6.03;3.08;;;12.10;81.10;;;;;;5071876;28;20047;-69
2022/04/29 12:41:42;;;;;;;7.32;3.20;;;12.10;81.80;;;;;;5074738;28;20223;-69
2022/04/29 12:44:10;;;;;;;7.35;2.92;;;12.20;81.50;;;;;;5093498;28;20511;-69
2022/04/29 12:46:36;;;;;;;6.13;3.10;;;12.20;80.70;;;;;;5074289;28;20072;-69
2022/04/29 12:49:03;;;;;;;7.85;3.28;;;12.20;80.20;;;;;;5073658;28;20124;-69
2022/04/29 12:51:33;;;;;;;5.88;3.38;;;11.90;80.50;;;;;;5073545;28;20054;-69
2022/04/29 12:54:07;;;;;;;8.88;3.08;;;12.00;80.10;;;;;;5074490;28;20054;-69
2022/04/29 12:56:35;;;;;;;4.43;3.20;;;11.90;80.30;;;;;;5092195;28;20123;-69
2022/04/29 12:59:03;;;;;;;7.15;3.10;;;11.80;80.30;;;;;;5075028;28;20495;-69
2022/04/29 13:01:39;;;;;;;5.10;2.90;;;11.80;80.40;;;;;;5092563;28;20075;-68
2022/04/29 13:04:06;;;;;;;4.68;2.83;;;12.10;81.60;;;;;;5091873;28;20071;-69
2022/04/29 13:06:32;;;;;;;4.93;3.05;;;12.30;79.90;;;;;;5072342;28;20536;-69
2022/04/29 13:08:59;;;;;;;10.38;2.70;;;12.60;79.10;;;;;;5092989;28;20048;-69
2022/04/29 13:11:25;;;;;;;6.88;2.90;;;12.90;78.60;;;;;;5092824;28;20071;-69
2022/04/29 13:13:52;;;;;;;6.45;3.20;;;13.10;76.60;;;;;;5092847;28;20032;-69
2022/04/29 13:16:20;;;;;;;6.22;3.05;;;13.10;76.70;;;;;;5092234;28;20040;-68
2022/04/29 13:18:46;;;;;;;5.95;2.75;;;12.90;74.60;;;;;;5073515;28;20086;-69
2022/04/29 13:21:12;;;;;;;5.93;2.67;;;12.60;76.40;;;;;;5070119;28;20142;-69